KBAM/BAM METAR and TAF weather

Enter ICAO airport designator
Station Type Date Time Source
KBAM METAR 2019/02/23 22:55 UTC NOAA

KBAM 232255Z AUTO 20005KT 10SM SCT050 OVC075 04/M06 A3017 RMK AO1


Station Type Date Time Source
KBAM Decoded METAR 2019/02/23 22:55 UTC NOAA

Station name not available
Feb 23, 2019 - 05:55 PM EST / 2019.02.23 2255 UTC
Wind: from the SSW (200 degrees) at 6 MPH (5 KT):0
Visibility: 10 mile(s):0
Sky conditions: overcast
Temperature: 39 F (4 C)
Dew Point: 21 F (-6 C)
Relative Humidity: 48%
Pressure (altimeter): 30.17 in. Hg (1021 hPa)
ob: KBAM 232255Z AUTO 20005KT 10SM SCT050 OVC075 04/M06 A3017 RMK AO1
cycle: 23

Station Type Date Time Source
KBAM TAF 2019/02/23 18:22 UTC NOAA

TAF KBAM 231720Z 2318/2418 05006KT P6SM VCSH BKN070
FM232100 20008KT P6SM VCSH BKN050 OVC070
FM240200 20010KT P6SM -SHSN BKN040 OVC060
FM240900 16011KT P6SM VCSH SCT040 BKN060


Example: see airport list